Flag for Bahrain

Past Weather in 26°11'39.7"N, 50°42'52.1"E, Bahrain — Yesterday and Last 2 Weeks

Currently: 95 °F. Clear. (Weather station: Bahrain International Airport, Bahrain). See more current weather

Past Weather in 26°11'39.7"N, 50°42'52.1"E — Graph

°F

26°11'39.7"N, 50°42'52.1"E Temperature Yesterday

Maximum temperature yesterday: 97 °F (at 12:30 pm)
Minimum temperature yesterday: 88 °F (at 12:30 am)
Average temperature yesterday: 92 °F

High & Low Weather Summary for the Past Weeks

 TemperatureHumidityPressure
High106 °F (May 21, 12:30 pm)84% (May 18, 2:30 am)29.80 "Hg (May 18, 2:30 am)
Low82 °F (May 18, 1:00 am)13% (May 21, 12:30 pm)29.56 "Hg (May 29, 1:30 pm)
Average92 °F43%29.67 "Hg
* Reported May 14 10:00 pm — May 29 10:30 pm, 26°11'39.7"N, 50°42'52.1"E. Weather by CustomWeather, © 2024

Note: Actual official high and low records may vary slightly from our data, if they occured in-between our weather recording intervals... More about our weather records

26°11'39.7"N, 50°42'52.1"E Weather History for the Previous 24 Hours

Scroll right to see more
 ConditionsComfort  
Time TempWeatherWind HumidityBarometerVisibility
10:30 pm
Wed, May 29
93 °FClear.10 mph32%29.56 "Hg10 mi
10:00 pm91 °FClear.10 mph41%29.56 "Hg10 mi
9:00 pm93 °FClear.8 mph39%29.59 "Hg10 mi
8:00 pm91 °FClear.12 mph46%29.56 "Hg10 mi
7:30 pm91 °FClear.12 mph46%29.56 "Hg10 mi
7:00 pm91 °FClear.12 mph49%29.56 "Hg10 mi
6:30 pm91 °FClear.12 mph49%29.56 "Hg10 mi
6:00 pm93 °FSunny.12 mph47%29.56 "Hg10 mi
5:00 pm95 °FSunny.14 mph39%29.56 "Hg10 mi
4:30 pm95 °FSunny.16 mph36%29.56 "Hg10 mi
4:00 pm97 °FSunny.16 mph39%29.56 "Hg10 mi
3:00 pm97 °FSunny.18 mph37%29.56 "Hg10 mi
2:00 pm97 °FSunny.18 mph37%29.56 "Hg10 mi
1:30 pm97 °FSunny.18 mph39%29.56 "Hg10 mi
1:00 pm97 °FSunny.18 mph39%29.59 "Hg10 mi
12:30 pm97 °FSunny.18 mph39%29.59 "Hg10 mi
11:00 am95 °FSunny.18 mph47%29.62 "Hg10 mi
10:00 am95 °FSunny.17 mph44%29.62 "Hg10 mi
9:30 am95 °FSunny.17 mph47%29.62 "Hg10 mi
9:00 am95 °FSunny.16 mph39%29.62 "Hg10 mi
8:30 am93 °FSunny.17 mph44%29.62 "Hg10 mi
8:00 am93 °FSunny.18 mph47%29.62 "Hg10 mi
7:00 am91 °FSunny.20 mph46%29.59 "Hg10 mi
6:30 am91 °FSunny.18 mph46%29.59 "Hg10 mi
6:00 am90 °FSunny.17 mph49%29.59 "Hg10 mi
5:00 am88 °FSunny.15 mph55%29.59 "Hg10 mi
4:30 am90 °FClear.16 mph52%29.59 "Hg10 mi
4:00 am90 °FClear.17 mph52%29.59 "Hg10 mi
3:00 am88 °FClear.15 mph55%29.59 "Hg10 mi
2:00 am91 °FClear.15 mph44%29.59 "Hg10 mi
1:30 am91 °FClear.15 mph44%29.59 "Hg10 mi
1:00 am90 °FClear.16 mph49%29.59 "Hg10 mi
12:30 am91 °FClear.17 mph46%29.59 "Hg10 mi
12:00 am91 °FClear.18 mph44%29.59 "Hg10 mi
11:30 pm
Tue, May 28
91 °FClear.18 mph44%29.62 "Hg10 mi
11:00 pm91 °FClear.18 mph44%29.62 "Hg10 mi
Weather by CustomWeather, © 2024

See weather overview